createdAt,value
2017-11-17T00:00:04.137Z,8.3
2017-11-17T00:05:02.983Z,8.3
2017-11-17T00:10:02.505Z,8.3
2017-11-17T00:15:02.997Z,8.3
2017-11-17T00:20:02.549Z,8.3
2017-11-17T00:25:03.109Z,8.3
2017-11-17T00:30:02.590Z,8.1
2017-11-17T00:35:03.011Z,8.1
2017-11-17T00:40:02.595Z,8.1
2017-11-17T00:45:03.043Z,8.1
2017-11-17T00:50:02.587Z,8.0
2017-11-17T00:55:03.033Z,8.0
2017-11-17T01:00:02.463Z,8.0
2017-11-17T01:05:03.265Z,8.0
2017-11-17T01:10:02.954Z,8.0
2017-11-17T01:15:02.646Z,8.0
2017-11-17T01:20:02.461Z,8.0
2017-11-17T01:25:02.927Z,7.9
2017-11-17T01:30:03.369Z,7.6
2017-11-17T01:35:03.144Z,7.5
2017-11-17T01:40:02.756Z,7.5
2017-11-17T01:45:03.187Z,7.4
2017-11-17T01:50:02.780Z,7.4
2017-11-17T01:55:02.438Z,7.4
2017-11-17T02:00:03.114Z,7.4
2017-11-17T02:05:02.588Z,7.0
2017-11-17T02:10:03.200Z,7.0
2017-11-17T02:15:02.784Z,7.0
2017-11-17T02:20:02.485Z,6.9
2017-11-17T02:25:02.971Z,6.6
2017-11-17T02:30:02.571Z,6.6
2017-11-17T02:35:03.242Z,6.4
2017-11-17T02:40:02.951Z,6.4
2017-11-17T02:45:02.581Z,6.4
2017-11-17T02:50:03.248Z,6.4
2017-11-17T02:55:02.962Z,6.1
2017-11-17T03:00:02.632Z,6.1
2017-11-17T03:05:03.286Z,6.1
2017-11-17T03:10:02.911Z,6.0
2017-11-17T03:15:02.393Z,5.9
2017-11-17T03:20:02.896Z,5.9
2017-11-17T03:25:02.468Z,5.8
2017-11-17T03:30:03.110Z,5.5
2017-11-17T03:35:02.728Z,5.5
2017-11-17T03:40:03.370Z,5.4
2017-11-17T03:45:02.857Z,5.4
2017-11-17T03:50:02.520Z,5.4
2017-11-17T03:55:03.101Z,5.3
2017-11-17T04:00:02.748Z,5.3
2017-11-17T04:05:03.217Z,5.0
2017-11-17T04:10:02.911Z,5.0
2017-11-17T04:15:02.378Z,5.0
2017-11-17T04:20:03.002Z,4.8
2017-11-17T04:25:02.654Z,4.8
2017-11-17T04:30:03.340Z,4.8
2017-11-17T04:35:02.850Z,4.5
2017-11-17T04:40:02.540Z,4.5
2017-11-17T04:45:03.062Z,4.5
2017-11-17T04:50:02.510Z,4.5
2017-11-17T04:55:03.221Z,4.5
2017-11-17T05:00:02.887Z,4.3
2017-11-17T05:05:03.381Z,4.3
2017-11-17T05:10:02.994Z,4.0
2017-11-17T05:15:02.639Z,4.0
2017-11-17T05:20:03.167Z,4.0
2017-11-17T05:25:02.780Z,4.0
2017-11-17T05:30:02.428Z,4.0
2017-11-17T05:35:03.217Z,4.0
2017-11-17T05:40:02.879Z,4.0
2017-11-17T05:45:02.488Z,4.0
2017-11-17T05:50:03.120Z,3.7
2017-11-17T05:55:02.551Z,3.7
2017-11-17T06:00:03.027Z,3.7
2017-11-17T06:05:02.491Z,3.7
2017-11-17T06:10:03.185Z,3.5
2017-11-17T06:15:02.808Z,3.7
2017-11-17T06:20:03.298Z,3.2
2017-11-17T06:25:02.929Z,3.2
2017-11-17T06:30:02.644Z,3.0
2017-11-17T06:35:03.290Z,3.0
2017-11-17T06:40:03.015Z,3.0
2017-11-17T06:45:02.553Z,3.0
2017-11-17T06:50:03.094Z,2.9
2017-11-17T06:55:02.697Z,2.7
2017-11-17T07:00:03.226Z,2.5
2017-11-17T07:05:02.867Z,2.5
2017-11-17T07:10:02.515Z,2.5
2017-11-17T07:15:03.151Z,2.4
2017-11-17T07:20:02.722Z,2.5
2017-11-17T07:25:03.395Z,2.7
2017-11-17T07:30:03.079Z,2.9
2017-11-17T07:35:02.550Z,3.0
2017-11-17T07:40:03.268Z,3.0
2017-11-17T07:45:02.770Z,3.0
2017-11-17T07:50:02.383Z,2.7
2017-11-17T07:55:02.888Z,3.0
2017-11-17T08:00:02.601Z,3.2
2017-11-17T08:05:03.198Z,3.2
2017-11-17T08:10:02.737Z,3.2
2017-11-17T08:15:03.193Z,3.5
2017-11-17T08:20:02.813Z,3.5
2017-11-17T08:25:03.323Z,3.5
2017-11-17T08:30:03.139Z,3.7
2017-11-17T08:35:02.728Z,3.7
2017-11-17T08:40:02.429Z,4.0
2017-11-17T08:45:03.021Z,4.0
2017-11-17T08:50:02.659Z,4.5
2017-11-17T08:55:03.205Z,5.4
2017-11-17T09:00:02.814Z,5.5
2017-11-17T09:05:02.512Z,6.9
2017-11-17T09:10:03.184Z,6.9
2017-11-17T09:15:02.759Z,7.0
2017-11-17T09:20:02.432Z,7.0
2017-11-17T09:25:03.061Z,7.4
2017-11-17T09:30:02.577Z,8.0
2017-11-17T09:35:03.269Z,7.9
2017-11-17T09:40:02.912Z,8.5
2017-11-17T09:45:02.548Z,8.3
2017-11-17T09:50:03.066Z,8.5
2017-11-17T09:55:02.591Z,8.8
2017-11-17T10:00:03.094Z,10.0
2017-11-17T10:05:02.570Z,10.3
2017-11-17T10:10:03.222Z,10.8
2017-11-17T10:15:02.695Z,11.3
2017-11-17T10:20:02.393Z,10.6
2017-11-17T10:25:02.992Z,11.3
2017-11-17T10:30:02.494Z,11.6
2017-11-17T10:35:03.186Z,11.1
2017-11-17T10:40:02.847Z,10.8
2017-11-17T10:45:02.680Z,11.3
2017-11-17T10:50:03.366Z,11.3
2017-11-17T10:55:02.910Z,11.3
2017-11-17T11:00:02.564Z,11.3
2017-11-17T11:05:03.210Z,10.6
2017-11-17T11:10:02.725Z,10.8
2017-11-17T11:15:03.447Z,10.6
2017-11-17T11:20:03.277Z,10.8
2017-11-17T11:25:02.916Z,10.8
2017-11-17T11:30:02.667Z,10.8
2017-11-17T11:35:03.183Z,10.8
2017-11-17T11:40:02.656Z,10.1
2017-11-17T11:45:03.103Z,10.5
2017-11-17T11:50:02.600Z,10.6
2017-11-17T11:55:03.089Z,10.8
2017-11-17T12:00:02.572Z,10.6
2017-11-17T12:05:03.239Z,10.6
2017-11-17T12:10:02.758Z,10.6
2017-11-17T12:15:02.402Z,10.5
2017-11-17T12:20:03.121Z,10.8
2017-11-17T12:25:02.525Z,10.8
2017-11-17T12:30:03.248Z,10.6
2017-11-17T12:35:02.898Z,10.8
2017-11-17T12:40:02.745Z,10.8
2017-11-17T12:45:03.283Z,10.8
2017-11-17T12:50:02.889Z,10.3
2017-11-17T12:55:02.365Z,10.0
2017-11-17T13:00:02.967Z,9.8
2017-11-17T13:05:02.767Z,9.6
2017-11-17T13:10:02.523Z,9.5
2017-11-17T13:15:03.196Z,9.5
2017-11-17T13:20:02.760Z,10.0
2017-11-17T13:25:03.297Z,10.1
2017-11-17T13:30:02.935Z,10.0
2017-11-17T13:35:02.501Z,9.6
2017-11-17T13:40:03.373Z,9.6
2017-11-17T13:45:02.897Z,9.5
2017-11-17T13:50:02.447Z,9.5
2017-11-17T13:55:03.101Z,9.5
2017-11-17T14:00:02.649Z,9.5
2017-11-17T14:05:02.426Z,9.3
2017-11-17T14:10:03.095Z,9.6
2017-11-17T14:15:02.526Z,10.0
2017-11-17T14:20:03.399Z,9.8
2017-11-17T14:25:03.111Z,9.1
2017-11-17T14:30:02.590Z,9.0
2017-11-17T14:35:03.153Z,9.0
2017-11-17T14:40:02.847Z,9.0
2017-11-17T14:45:02.374Z,8.8
2017-11-17T14:50:02.876Z,8.6
2017-11-17T14:55:02.570Z,8.6
2017-11-17T15:00:03.064Z,8.6
2017-11-17T15:05:02.789Z,8.8
2017-11-17T15:10:02.391Z,8.8
2017-11-17T15:15:03.067Z,9.0
2017-11-17T15:20:02.634Z,8.8
2017-11-17T15:25:03.291Z,8.6
2017-11-17T15:30:02.929Z,8.3
2017-11-17T15:35:02.661Z,8.1
2017-11-17T15:40:02.405Z,7.9
2017-11-17T15:45:02.954Z,7.5
2017-11-17T15:50:02.679Z,7.4
2017-11-17T15:55:03.194Z,6.9
2017-11-17T16:00:02.868Z,6.5
2017-11-17T16:05:02.583Z,6.4
2017-11-17T16:10:03.216Z,6.1
2017-11-17T16:15:02.796Z,6.1
2017-11-17T16:20:02.486Z,6.0
2017-11-17T16:25:03.148Z,6.0
2017-11-17T16:30:02.583Z,5.8
2017-11-17T16:35:03.210Z,5.5
2017-11-17T16:40:02.843Z,5.8
2017-11-17T16:45:03.340Z,5.9
2017-11-17T16:50:03.046Z,5.9
2017-11-17T16:55:02.598Z,6.1
2017-11-17T17:00:03.044Z,5.9
2017-11-17T17:05:02.620Z,5.8
2017-11-17T17:10:03.345Z,5.4
2017-11-17T17:15:02.841Z,5.3
2017-11-17T17:20:02.532Z,5.3
2017-11-17T17:25:03.113Z,5.3
2017-11-17T17:30:02.814Z,5.3
2017-11-17T17:35:02.509Z,5.3
2017-11-17T17:40:03.093Z,5.4
2017-11-17T17:45:02.740Z,5.5
2017-11-17T17:50:03.295Z,5.5
2017-11-17T17:55:02.891Z,5.8
2017-11-17T18:00:02.383Z,5.9
2017-11-17T18:05:02.910Z,6.0
2017-11-17T18:10:02.606Z,5.9
2017-11-17T18:15:03.244Z,5.8
2017-11-17T18:20:02.959Z,5.8
2017-11-17T18:25:02.435Z,5.5
2017-11-17T18:30:03.233Z,5.3
2017-11-17T18:35:02.849Z,5.5
2017-11-17T18:40:02.765Z,5.4
2017-11-17T18:45:02.710Z,5.3
2017-11-17T18:50:03.386Z,5.4
2017-11-17T18:55:03.271Z,5.4
2017-11-17T19:00:03.088Z,5.3
2017-11-17T19:05:02.868Z,5.0
2017-11-17T19:10:02.799Z,5.0
2017-11-17T19:15:02.787Z,5.0
2017-11-17T19:20:02.559Z,5.0
2017-11-17T19:25:03.232Z,5.0
2017-11-17T19:30:02.895Z,4.8
2017-11-17T19:35:02.601Z,4.8
2017-11-17T19:40:03.154Z,4.8
2017-11-17T19:45:02.780Z,4.8
2017-11-17T19:50:02.551Z,4.8
2017-11-17T19:55:03.129Z,5.0
2017-11-17T20:00:02.661Z,5.0
2017-11-17T20:05:03.309Z,5.3
2017-11-17T20:10:02.830Z,5.0
2017-11-17T20:15:03.279Z,5.0
2017-11-17T20:20:02.826Z,5.0
2017-11-17T20:25:03.359Z,4.5
2017-11-17T20:30:02.845Z,4.5
2017-11-17T20:35:02.687Z,4.5
2017-11-17T20:40:03.384Z,4.5
2017-11-17T20:45:02.823Z,4.5
2017-11-17T20:50:03.328Z,4.3
2017-11-17T20:55:03.021Z,4.0
2017-11-17T21:00:02.733Z,4.0
2017-11-17T21:05:03.348Z,3.7
2017-11-17T21:10:03.134Z,3.7
2017-11-17T21:15:02.723Z,3.7
2017-11-17T21:20:03.303Z,3.7
2017-11-17T21:25:02.918Z,3.5
2017-11-17T21:30:02.429Z,3.2
2017-11-17T21:35:02.927Z,3.7
2017-11-17T21:40:02.705Z,3.5
2017-11-17T21:45:03.375Z,3.5
2017-11-17T21:50:02.920Z,3.5
2017-11-17T21:55:02.567Z,3.2
2017-11-17T22:00:03.168Z,3.5
2017-11-17T22:05:02.705Z,3.5
2017-11-17T22:10:03.259Z,3.2
2017-11-17T22:15:02.800Z,3.0
2017-11-17T22:20:02.527Z,3.2
2017-11-17T22:25:03.091Z,3.2
2017-11-17T22:30:02.634Z,3.0
2017-11-17T22:35:03.339Z,3.2
2017-11-17T22:40:02.998Z,3.2
2017-11-17T22:45:02.683Z,3.2
2017-11-17T22:50:03.197Z,3.2
2017-11-17T22:55:02.716Z,3.2
2017-11-17T23:00:03.239Z,3.2
2017-11-17T23:05:02.687Z,3.0
2017-11-17T23:10:03.311Z,3.0
2017-11-17T23:15:02.845Z,3.0
2017-11-17T23:20:02.384Z,3.0
2017-11-17T23:25:02.981Z,2.9
2017-11-17T23:30:02.521Z,3.0
2017-11-17T23:35:03.222Z,3.2
2017-11-17T23:40:02.944Z,3.2
2017-11-17T23:45:02.537Z,3.2
2017-11-17T23:50:02.981Z,3.2
2017-11-17T23:55:02.603Z,3.5
